Time;durP1;ratioP1;P1;durP2;ratioP2;P2;SDS_P1;SDS_P2;PMS_P1;PMS_P2;Temp;Humidity;BMP_temperature;BMP_pressure;BME280_temperature;BME280_humidity;BME280_pressure;Samples;Min_cycle;Max_cycle;Signal;HPM_P1;HPM_P2
2022/02/01 00:00:05;;;;;;;17.05;1.83;;;5.80;99.90;;;;;;5074032;27;39251;-75
2022/02/01 00:02:45;;;;;;;15.20;2.30;;;5.80;99.90;;;;;;5079489;27;47958;-77
2022/02/01 00:05:18;;;;;;;8.80;2.53;;;5.80;99.90;;;;;;5079443;27;37501;-77
2022/02/01 00:10:23;;;;;;;7.93;1.83;;;5.90;99.90;;;;;;5076741;27;39106;-77
2022/02/01 00:13:06;;;;;;;10.75;1.70;;;5.90;99.90;;;;;;5084151;28;37964;-76
2022/02/01 00:37:22;;;;;;;15.67;2.17;;;5.60;99.90;;;;;;5078364;27;38327;-75
2022/02/01 00:39:56;;;;;;;17.53;2.17;;;5.70;99.90;;;;;;5077057;28;37987;-75
2022/02/01 00:42:22;;;;;;;27.90;4.93;;;5.60;99.90;;;;;;5080422;27;37496;-76
2022/02/01 00:44:48;;;;;;;15.60;2.73;;;5.60;99.90;;;;;;5081234;27;38085;-76
2022/02/01 00:47:14;;;;;;;16.17;2.47;;;5.70;99.90;;;;;;5081065;28;35777;-77
2022/02/01 00:49:40;;;;;;;19.20;2.77;;;5.60;99.90;;;;;;5080890;27;38899;-76
2022/02/01 00:52:06;;;;;;;16.87;2.50;;;5.70;99.90;;;;;;5078989;28;37671;-74
2022/02/01 00:54:32;;;;;;;13.87;2.67;;;5.80;99.90;;;;;;5087029;27;39843;-77
2022/02/01 00:56:58;;;;;;;18.13;2.90;;;5.80;99.90;;;;;;5082131;28;36329;-77
2022/02/01 00:59:26;;;;;;;17.20;2.50;;;5.70;99.90;;;;;;5084923;27;40501;-77
2022/02/01 01:01:52;;;;;;;14.03;2.27;;;5.70;99.90;;;;;;5073002;28;39530;-77
2022/02/01 01:04:18;;;;;;;17.43;2.90;;;5.70;99.90;;;;;;5085968;27;38289;-77
2022/02/01 01:06:44;;;;;;;12.97;2.50;;;5.80;99.90;;;;;;5083075;27;37218;-78
2022/02/01 01:09:10;;;;;;;19.27;3.17;;;5.70;99.90;;;;;;5085224;27;39482;-77
2022/02/01 01:11:36;;;;;;;22.27;2.60;;;5.40;99.90;;;;;;5082708;27;37311;-75
2022/02/01 01:38:57;;;;;;;18.60;3.83;;;4.90;99.90;;;;;;5062259;28;38289;-77
2022/02/01 01:44:12;;;;;;;13.63;2.60;;;4.80;99.90;;;;;;5086368;27;40044;-77
2022/02/01 01:54:53;;;;;;;14.60;2.63;;;5.40;99.90;;;;;;5080806;28;38935;-75
2022/02/01 01:57:20;;;;;;;26.30;5.23;;;5.40;99.90;;;;;;5081112;27;38932;-77
2022/02/01 01:59:46;;;;;;;19.30;2.40;;;5.50;99.90;;;;;;5078952;28;36766;-75
2022/02/01 02:02:12;;;;;;;16.23;2.37;;;5.50;99.90;;;;;;5075688;27;39074;-75
2022/02/01 02:04:38;;;;;;;11.37;1.60;;;5.60;99.90;;;;;;5077696;28;37725;-75
2022/02/01 02:07:04;;;;;;;13.07;2.50;;;5.40;99.90;;;;;;5077956;28;38937;-77
2022/02/01 02:09:30;;;;;;;13.60;2.70;;;5.40;99.90;;;;;;5079687;27;37528;-76
2022/02/01 02:12:31;;;;;;;16.60;1.97;;;5.40;99.90;;;;;;5081170;28;40410;-77
2022/02/01 02:14:48;;;;;;;14.90;3.03;;;5.40;99.90;;;;;;5082260;27;48240;-76
2022/02/01 02:17:14;;;;;;;16.67;2.27;;;5.30;99.90;;;;;;5079626;27;39452;-77
2022/02/01 02:19:40;;;;;;;20.47;2.67;;;5.30;99.90;;;;;;5077322;28;37860;-77
2022/02/01 02:22:08;;;;;;;17.07;2.70;;;5.40;99.90;;;;;;5080709;27;39824;-77
2022/02/01 02:24:38;;;;;;;19.77;2.60;;;5.40;99.90;;;;;;5082571;28;39182;-76
2022/02/01 02:27:05;;;;;;;13.23;1.70;;;5.50;99.90;;;;;;5074408;27;38035;-76
2022/02/01 02:29:32;;;;;;;17.43;2.23;;;5.50;99.90;;;;;;5080042;27;38555;-76
2022/02/01 02:31:58;;;;;;;13.87;2.93;;;5.50;99.90;;;;;;5072441;28;38389;-77
2022/02/01 02:34:25;;;;;;;13.67;2.53;;;5.50;99.90;;;;;;5073682;27;38943;-76
2022/02/01 02:36:57;;;;;;;20.57;2.37;;;5.50;99.90;;;;;;5077394;27;39869;-76
2022/02/01 02:47:07;;;;;;;18.90;2.27;;;5.70;99.90;;;;;;5081368;27;41078;-77
2022/02/01 02:49:34;;;;;;;19.17;2.67;;;5.70;99.90;;;;;;5079939;28;38345;-76
2022/02/01 02:52:00;;;;;;;20.53;2.60;;;5.80;99.90;;;;;;5078837;27;39796;-76
2022/02/01 02:54:27;;;;;;;15.60;2.73;;;5.70;99.90;;;;;;5081528;28;38899;-76
2022/02/01 02:57:03;;;;;;;20.57;2.83;;;5.70;99.90;;;;;;5074267;27;38540;-77
2022/02/01 02:59:30;;;;;;;9.83;2.00;;;5.70;99.90;;;;;;5077523;28;47193;-76
2022/02/01 03:01:57;;;;;;;21.03;3.50;;;5.70;99.90;;;;;;5075985;28;39893;-76
2022/02/01 03:04:25;;;;;;;15.33;2.67;;;5.70;99.90;;;;;;5080814;27;40546;-76
2022/02/01 03:06:53;;;;;;;16.53;2.67;;;5.80;99.90;;;;;;5080884;28;40515;-77
2022/02/01 03:09:21;;;;;;;16.20;2.17;;;5.80;99.90;;;;;;5084682;28;37633;-76
2022/02/01 03:11:50;;;;;;;18.67;2.93;;;5.80;99.90;;;;;;5079078;28;38220;-77
2022/02/01 03:14:27;;;;;;;18.53;2.43;;;5.70;99.90;;;;;;5084248;28;39304;-77
2022/02/01 03:22:11;;;;;;;16.17;3.47;;;5.80;99.90;;;;;;5077926;27;40327;-77
2022/02/01 03:24:37;;;;;;;15.10;2.80;;;5.80;99.90;;;;;;5078565;28;37407;-77
2022/02/01 03:27:04;;;;;;;14.13;3.30;;;5.80;99.90;;;;;;5080475;27;37957;-76
2022/02/01 03:29:30;;;;;;;14.13;2.87;;;5.80;99.90;;;;;;5073522;27;36286;-76
2022/02/01 03:31:56;;;;;;;20.13;3.40;;;5.80;99.90;;;;;;5075342;27;38918;-77
2022/02/01 03:34:22;;;;;;;15.07;2.67;;;5.70;99.90;;;;;;5067980;27;38411;-76
2022/02/01 03:36:49;;;;;;;18.03;2.83;;;5.70;99.90;;;;;;5072650;27;39196;-77
2022/02/01 03:39:16;;;;;;;15.17;2.73;;;5.70;99.90;;;;;;5079410;27;36938;-76
2022/02/01 03:41:42;;;;;;;21.13;2.70;;;5.70;99.90;;;;;;5075305;28;39571;-76
2022/02/01 03:44:11;;;;;;;17.17;2.80;;;5.70;99.90;;;;;;5071376;28;37386;-77
2022/02/01 03:46:39;;;;;;;23.50;3.47;;;5.80;99.90;;;;;;5075933;28;37349;-76
2022/02/01 03:49:05;;;;;;;18.03;2.93;;;5.70;99.90;;;;;;5066004;28;37474;-76
2022/02/01 03:51:31;;;;;;;12.80;3.07;;;5.80;99.90;;;;;;5074494;28;39416;-76
2022/02/01 03:53:58;;;;;;;22.27;3.37;;;5.80;99.90;;;;;;5073934;28;39029;-76
2022/02/01 03:56:24;;;;;;;16.50;3.20;;;5.80;99.90;;;;;;5077564;28;37031;-76
2022/02/01 03:58:53;;;;;;;15.43;3.57;;;5.80;99.90;;;;;;5075745;28;36499;-76
2022/02/01 04:01:19;;;;;;;23.40;4.70;;;5.80;99.90;;;;;;5074251;27;37748;-76
2022/02/01 04:03:45;;;;;;;23.37;3.77;;;5.80;99.90;;;;;;5076105;27;38029;-76
2022/02/01 04:06:11;;;;;;;27.37;4.37;;;5.90;99.90;;;;;;5073821;27;38159;-76
2022/02/01 04:08:39;;;;;;;23.90;3.77;;;5.80;99.90;;;;;;5078001;28;37823;-76
2022/02/01 04:11:05;;;;;;;20.60;3.67;;;5.90;99.90;;;;;;5074340;27;38188;-76
2022/02/01 04:13:31;;;;;;;21.90;3.50;;;5.90;99.90;;;;;;5084196;28;37771;-77
2022/02/01 04:15:58;;;;;;;24.00;3.37;;;5.90;99.90;;;;;;5080681;27;37504;-76
2022/02/01 04:18:24;;;;;;;24.47;5.53;;;5.90;99.90;;;;;;5074989;27;37551;-77
2022/02/01 04:20:50;;;;;;;27.50;4.80;;;6.00;99.90;;;;;;5079045;27;38062;-76
2022/02/01 04:23:16;;;;;;;19.13;4.53;;;6.00;99.90;;;;;;5083077;28;37834;-77
2022/02/01 04:25:42;;;;;;;23.40;4.27;;;6.00;99.90;;;;;;5079833;27;38197;-76
2022/02/01 04:28:08;;;;;;;28.33;5.53;;;5.90;99.90;;;;;;5089483;27;36364;-77
2022/02/01 04:30:34;;;;;;;22.10;4.47;;;5.90;99.90;;;;;;5080088;28;37598;-77
2022/02/01 04:33:06;;;;;;;27.93;5.37;;;5.90;99.90;;;;;;5078560;27;38024;-76
2022/02/01 04:35:32;;;;;;;20.40;5.33;;;5.90;99.90;;;;;;5083302;27;48424;-76
2022/02/01 04:37:58;;;;;;;23.63;5.60;;;5.90;99.90;;;;;;5080812;27;37258;-77
2022/02/01 04:40:26;;;;;;;24.27;4.90;;;5.90;99.90;;;;;;5076474;27;36867;-76
2022/02/01 04:42:53;;;;;;;28.20;6.47;;;5.90;99.90;;;;;;5087676;27;38758;-77
2022/02/01 04:45:22;;;;;;;35.93;5.90;;;5.90;99.90;;;;;;5082256;27;38313;-77
2022/02/01 04:47:50;;;;;;;24.77;5.90;;;5.80;99.90;;;;;;5078837;28;37606;-76
2022/02/01 04:50:26;;;;;;;22.97;5.97;;;5.90;99.90;;;;;;5080745;27;39464;-77
2022/02/01 04:52:54;;;;;;;25.60;5.60;;;5.90;99.90;;;;;;5082021;28;38037;-77
2022/02/01 04:55:22;;;;;;;27.20;5.33;;;5.80;99.90;;;;;;5081247;27;38293;-77
2022/02/01 04:57:55;;;;;;;32.13;5.90;;;5.80;99.90;;;;;;5081742;28;36090;-76
2022/02/01 05:00:27;;;;;;;29.73;5.70;;;5.80;99.90;;;;;;5081829;27;38693;-77
2022/02/01 05:02:58;;;;;;;31.63;6.60;;;5.80;99.90;;;;;;5081017;28;38029;-76
2022/02/01 05:05:29;;;;;;;28.13;6.20;;;5.80;99.90;;;;;;5073608;27;37799;-76
2022/02/01 05:08:00;;;;;;;30.17;6.47;;;5.70;99.90;;;;;;5098481;27;38765;-76
2022/02/01 05:10:32;;;;;;;30.37;5.87;;;5.70;99.90;;;;;;5079429;28;41183;-76
2022/02/01 05:15:36;;;;;;;32.70;6.03;;;5.70;99.90;;;;;;5079213;27;49351;-77
2022/02/01 05:18:03;;;;;;;28.03;6.60;;;5.70;99.90;;;;;;5077332;27;36095;-77
2022/02/01 05:20:47;;;;;;;23.13;5.97;;;5.70;99.90;;;;;;5076874;28;36113;-76
2022/02/01 05:23:15;;;;;;;26.60;6.63;;;5.70;99.90;;;;;;5077237;27;37721;-77
2022/02/01 05:25:45;;;;;;;28.27;6.50;;;5.70;99.90;;;;;;5082855;28;37283;-77
2022/02/01 05:28:11;;;;;;;23.83;6.77;;;5.70;99.90;;;;;;5084449;28;37879;-77
2022/02/01 05:30:37;;;;;;;31.67;8.47;;;5.70;99.90;;;;;;5073117;28;39087;-77
2022/02/01 05:33:03;;;;;;;36.03;7.67;;;5.70;99.90;;;;;;5076864;28;40330;-77
2022/02/01 05:35:32;;;;;;;35.77;8.73;;;5.70;99.90;;;;;;5079978;28;38872;-77
2022/02/01 05:37:59;;;;;;;24.37;6.70;;;5.70;99.90;;;;;;5083025;28;39234;-77
2022/02/01 05:40:26;;;;;;;33.97;8.03;;;5.70;99.90;;;;;;5077730;27;39415;-77
2022/02/01 05:45:22;;;;;;;28.73;7.37;;;5.70;99.90;;;;;;5077270;27;38495;-77
2022/02/01 05:47:49;;;;;;;21.47;7.40;;;5.80;99.90;;;;;;5084811;27;37911;-76
2022/02/01 05:50:15;;;;;;;28.03;7.57;;;5.80;99.90;;;;;;5080091;27;38427;-77
2022/02/01 05:52:41;;;;;;;36.50;9.67;;;5.80;99.90;;;;;;5084901;28;39053;-77
2022/02/01 05:55:10;;;;;;;30.50;7.83;;;5.80;99.90;;;;;;5081217;28;39547;-77
2022/02/01 05:57:37;;;;;;;24.20;7.77;;;5.80;99.90;;;;;;5082982;27;37088;-77
2022/02/01 06:00:05;;;;;;;21.17;7.33;;;5.90;99.90;;;;;;5082300;27;37788;-76
2022/02/01 06:02:31;;;;;;;23.90;7.80;;;5.90;99.90;;;;;;5072789;27;39648;-77
2022/02/01 06:04:57;;;;;;;29.63;8.50;;;5.90;99.90;;;;;;5081986;28;37360;-76
2022/02/01 06:07:23;;;;;;;29.70;9.07;;;5.90;99.90;;;;;;5079697;27;37933;-76
2022/02/01 06:09:49;;;;;;;32.47;9.23;;;5.90;99.90;;;;;;5082035;28;39431;-76
2022/02/01 06:12:15;;;;;;;34.27;9.20;;;5.90;99.90;;;;;;5078973;27;39220;-76
2022/02/01 06:14:41;;;;;;;36.07;9.53;;;6.00;99.90;;;;;;5077670;27;37774;-76
2022/02/01 06:17:08;;;;;;;38.23;10.27;;;6.00;99.90;;;;;;5075289;28;37899;-76
2022/02/01 06:19:37;;;;;;;29.13;10.93;;;6.00;99.90;;;;;;5080721;27;40507;-77
2022/02/01 06:22:05;;;;;;;33.83;8.43;;;6.00;99.90;;;;;;5078775;28;37596;-77
2022/02/01 06:24:32;;;;;;;26.40;8.93;;;6.10;99.90;;;;;;5082711;28;37298;-76
2022/02/01 06:26:58;;;;;;;30.50;8.83;;;6.10;99.90;;;;;;5076825;28;35973;-76
2022/02/01 06:29:25;;;;;;;26.13;8.03;;;6.10;99.90;;;;;;5076316;27;38935;-77
2022/02/01 06:31:51;;;;;;;26.80;8.50;;;6.10;99.90;;;;;;5073420;28;38152;-77
2022/02/01 06:34:17;;;;;;;32.07;8.47;;;6.10;99.90;;;;;;5075199;28;38751;-76
2022/02/01 06:36:43;;;;;;;26.77;8.70;;;6.10;99.90;;;;;;5076547;28;35011;-77
2022/02/01 06:39:09;;;;;;;24.13;7.60;;;6.10;99.90;;;;;;5077925;27;38085;-76
2022/02/01 06:41:36;;;;;;;25.63;9.73;;;6.20;99.90;;;;;;5077271;27;38463;-77
2022/02/01 06:44:05;;;;;;;25.60;9.20;;;6.20;99.90;;;;;;5072113;27;39504;-77
2022/02/01 06:46:31;;;;;;;23.97;8.47;;;6.20;99.90;;;;;;5077868;28;36512;-76
2022/02/01 06:48:57;;;;;;;21.70;8.37;;;6.20;99.90;;;;;;5076280;28;39303;-77
2022/02/01 06:51:26;;;;;;;18.03;8.70;;;6.20;99.90;;;;;;5082759;27;38357;-77
2022/02/01 06:53:55;;;;;;;19.80;7.40;;;6.20;99.90;;;;;;5083087;28;38269;-77
2022/02/01 06:56:28;;;;;;;20.80;6.97;;;6.30;99.90;;;;;;5084677;27;35989;-77
2022/02/01 06:58:57;;;;;;;14.13;6.83;;;6.30;99.90;;;;;;5071815;28;38084;-76
2022/02/01 07:01:24;;;;;;;18.87;7.77;;;6.30;99.90;;;;;;5073826;27;38507;-77
2022/02/01 07:03:50;;;;;;;12.63;7.33;;;6.30;99.90;;;;;;5077807;28;39272;-77
2022/02/01 07:06:17;;;;;;;12.90;7.13;;;6.20;99.90;;;;;;5080225;27;37003;-77
2022/02/01 07:08:45;;;;;;;17.67;7.00;;;6.30;99.90;;;;;;5082764;28;37892;-77
2022/02/01 07:11:12;;;;;;;18.43;7.27;;;6.20;99.90;;;;;;5081542;28;37058;-77
2022/02/01 07:13:39;;;;;;;12.27;5.73;;;6.30;99.90;;;;;;5082035;27;38438;-77
2022/02/01 07:16:07;;;;;;;12.63;6.83;;;6.30;99.90;;;;;;5080141;28;37563;-77
2022/02/01 07:18:33;;;;;;;8.53;5.67;;;6.30;99.90;;;;;;5078929;28;37818;-77
2022/02/01 07:21:00;;;;;;;11.87;6.37;;;6.30;99.90;;;;;;5082419;28;37479;-77
2022/02/01 07:23:27;;;;;;;11.60;6.67;;;6.40;99.90;;;;;;5078807;28;37967;-77
2022/02/01 07:25:56;;;;;;;17.53;7.43;;;6.30;99.90;;;;;;5074846;27;35812;-77
2022/02/01 07:28:24;;;;;;;12.43;6.63;;;6.40;99.90;;;;;;5080825;27;37969;-77
2022/02/01 07:30:50;;;;;;;9.70;6.20;;;6.40;99.90;;;;;;5081774;28;38286;-77
2022/02/01 07:33:17;;;;;;;8.87;6.23;;;6.40;99.90;;;;;;5074739;27;39014;-78
2022/02/01 07:35:46;;;;;;;11.07;6.60;;;6.40;99.90;;;;;;5076807;28;35957;-78
2022/02/01 07:38:16;;;;;;;10.57;5.80;;;6.40;99.90;;;;;;5080959;27;39006;-77
2022/02/01 07:40:43;;;;;;;8.70;6.17;;;6.40;99.90;;;;;;5079026;27;39111;-77
2022/02/01 07:43:09;;;;;;;8.60;5.33;;;6.40;99.90;;;;;;5071299;27;38079;-77
2022/02/01 07:45:38;;;;;;;8.03;5.77;;;6.50;99.90;;;;;;5081027;27;37215;-77
2022/02/01 07:48:04;;;;;;;9.80;5.70;;;6.50;99.90;;;;;;5078532;28;38694;-77
2022/02/01 07:50:33;;;;;;;12.67;6.20;;;6.50;99.90;;;;;;5080453;27;38920;-77
2022/02/01 07:53:00;;;;;;;10.80;5.93;;;6.50;99.90;;;;;;5080707;28;36899;-76
2022/02/01 07:55:27;;;;;;;7.13;5.83;;;6.60;99.90;;;;;;5079728;28;38459;-76
2022/02/01 07:57:53;;;;;;;10.00;5.30;;;6.60;99.90;;;;;;5081708;28;37975;-75
2022/02/01 08:00:19;;;;;;;10.40;5.27;;;6.60;99.90;;;;;;5079517;27;37838;-76
2022/02/01 08:02:45;;;;;;;9.77;5.23;;;6.60;99.90;;;;;;5083851;27;37922;-76
2022/02/01 08:05:12;;;;;;;10.93;5.93;;;6.60;99.90;;;;;;5082536;28;37717;-76
2022/02/01 08:07:38;;;;;;;11.07;6.20;;;6.70;99.90;;;;;;5082978;28;39183;-76
2022/02/01 08:10:09;;;;;;;13.10;7.80;;;6.60;99.90;;;;;;5080273;27;39220;-76
2022/02/01 08:20:41;;;;;;;9.30;7.30;;;6.70;99.90;;;;;;5078748;27;50546;-76
2022/02/01 08:23:07;;;;;;;11.60;6.97;;;6.70;99.90;;;;;;5077967;27;38000;-77
2022/02/01 08:25:34;;;;;;;11.23;7.57;;;6.70;99.90;;;;;;5079650;27;38018;-76
2022/02/01 08:28:02;;;;;;;13.23;7.53;;;6.70;99.90;;;;;;5082264;27;39892;-76
2022/02/01 08:30:29;;;;;;;13.03;6.43;;;6.80;99.90;;;;;;5071056;28;47307;-77
2022/02/01 08:32:55;;;;;;;12.83;5.80;;;6.80;99.90;;;;;;5075646;28;37756;-77
2022/02/01 08:35:21;;;;;;;20.07;7.37;;;6.80;99.90;;;;;;5093913;27;37890;-77
2022/02/01 08:37:48;;;;;;;22.97;6.27;;;6.80;99.90;;;;;;5082259;28;39023;-77
2022/02/01 08:40:16;;;;;;;19.20;6.07;;;6.90;99.90;;;;;;5079131;27;38917;-77
2022/02/01 08:42:47;;;;;;;15.63;5.33;;;6.90;99.90;;;;;;5082259;27;38342;-77
2022/02/01 08:45:20;;;;;;;12.73;4.70;;;6.90;99.90;;;;;;5077862;28;37087;-77
2022/02/01 08:47:47;;;;;;;15.43;5.83;;;6.90;99.90;;;;;;5081161;28;37579;-77
2022/02/01 08:50:13;;;;;;;11.10;4.83;;;6.90;99.90;;;;;;5089324;27;38875;-77
2022/02/01 08:52:43;;;;;;;16.17;4.83;;;6.90;99.90;;;;;;5087603;28;37909;-77
2022/02/01 08:55:19;;;;;;;18.67;5.00;;;6.90;99.90;;;;;;5085038;27;37375;-75
2022/02/01 08:57:46;;;;;;;15.67;5.17;;;6.90;99.90;;;;;;5084337;28;39701;-79
2022/02/01 09:00:15;;;;;;;19.57;5.23;;;6.90;99.90;;;;;;5084622;27;40481;-76
2022/02/01 09:02:43;;;;;;;18.80;4.73;;;6.90;99.90;;;;;;5090066;28;20114;-76
2022/02/01 09:05:10;;;;;;;19.83;5.33;;;7.00;99.90;;;;;;5086698;27;38201;-77
2022/02/01 09:07:36;;;;;;;28.17;5.87;;;7.00;99.90;;;;;;5087503;28;38621;-76
2022/02/01 09:10:03;;;;;;;26.07;6.00;;;7.00;99.90;;;;;;5086470;27;37944;-77
2022/02/01 09:12:29;;;;;;;23.40;5.50;;;7.00;99.90;;;;;;5083652;28;37794;-76
2022/02/01 09:14:55;;;;;;;17.87;4.80;;;7.00;99.90;;;;;;5083622;28;37230;-76
2022/02/01 09:17:21;;;;;;;19.30;4.90;;;7.10;99.90;;;;;;5083183;27;40474;-76
2022/02/01 09:19:47;;;;;;;17.80;4.53;;;7.10;99.90;;;;;;5084938;27;38546;-76
2022/02/01 09:22:14;;;;;;;24.50;5.50;;;7.10;99.90;;;;;;5084551;27;38381;-77
2022/02/01 09:24:42;;;;;;;25.63;5.70;;;7.10;99.90;;;;;;5088884;27;37718;-76
2022/02/01 09:27:10;;;;;;;24.97;6.33;;;7.10;99.90;;;;;;5085179;28;39850;-77
2022/02/01 09:29:36;;;;;;;24.37;6.33;;;7.20;99.90;;;;;;5086354;28;38801;-76
2022/02/01 09:32:03;;;;;;;28.53;6.93;;;7.20;99.90;;;;;;5088499;27;38148;-76
2022/02/01 09:34:30;;;;;;;23.20;6.60;;;7.20;99.90;;;;;;5092089;27;35180;-76
2022/02/01 09:36:57;;;;;;;23.33;7.73;;;7.20;99.90;;;;;;5090425;28;39069;-75
2022/02/01 09:39:24;;;;;;;32.33;7.33;;;7.30;99.90;;;;;;5087562;27;39463;-75
2022/02/01 09:41:52;;;;;;;27.27;7.57;;;7.30;99.90;;;;;;5087140;27;38536;-76
2022/02/01 09:44:20;;;;;;;36.63;8.30;;;7.30;99.90;;;;;;5087941;28;38348;-76
2022/02/01 09:46:49;;;;;;;23.30;6.53;;;7.30;99.90;;;;;;5086353;27;38931;-76
2022/02/01 09:49:16;;;;;;;30.87;6.57;;;7.40;99.90;;;;;;5087131;28;39012;-76
2022/02/01 09:51:46;;;;;;;24.00;6.67;;;7.40;99.90;;;;;;5086079;28;39708;-76
2022/02/01 09:54:12;;;;;;;18.27;5.30;;;7.50;99.90;;;;;;5086078;28;38117;-76
2022/02/01 09:56:38;;;;;;;24.80;6.03;;;7.50;99.90;;;;;;5086276;28;38746;-76
2022/02/01 09:59:29;;;;;;;28.03;6.43;;;7.50;99.90;;;;;;5086566;27;39905;-76
2022/02/01 10:02:02;;;;;;;18.83;6.90;;;7.50;99.90;;;;;;5086547;27;38542;-76
2022/02/01 10:04:28;;;;;;;22.48;5.85;;;7.50;99.90;;;;;;5087881;28;47226;-75
2022/02/01 10:07:14;;;;;;;28.67;7.27;;;7.50;99.90;;;;;;5087099;28;40111;-76
2022/02/01 10:09:57;;;;;;;25.90;7.60;;;7.50;99.90;;;;;;5084635;28;47166;-75
2022/02/01 10:12:28;;;;;;;24.77;6.77;;;7.60;99.90;;;;;;5088444;27;38264;-76
2022/02/01 10:15:04;;;;;;;26.73;8.30;;;7.60;99.90;;;;;;5085273;28;37151;-75
2022/02/01 10:17:55;;;;;;;36.93;8.67;;;7.60;99.90;;;;;;5084794;27;47490;-76
2022/02/01 10:20:33;;;;;;;29.90;7.53;;;7.70;99.90;;;;;;5085915;28;38313;-76
2022/02/01 10:22:59;;;;;;;33.40;8.50;;;7.70;99.90;;;;;;5087427;27;38257;-76
2022/02/01 10:25:30;;;;;;;35.50;8.47;;;7.80;99.90;;;;;;5086146;27;38800;-76
2022/02/01 10:27:58;;;;;;;35.43;8.57;;;7.90;99.90;;;;;;5088491;27;39013;-76
2022/02/01 10:30:39;;;;;;;26.20;8.03;;;7.80;99.90;;;;;;5083719;27;39438;-76
2022/02/01 10:33:42;;;;;;;27.37;7.43;;;7.90;99.90;;;;;;5086007;28;39216;-76
2022/02/01 10:36:09;;;;;;;38.10;8.27;;;7.90;99.90;;;;;;5083510;27;37163;-76
2022/02/01 10:38:35;;;;;;;27.93;7.53;;;8.00;99.90;;;;;;5083879;28;39125;-75
2022/02/01 10:41:04;;;;;;;31.73;7.83;;;8.00;99.90;;;;;;5084253;27;38655;-76
2022/02/01 10:43:33;;;;;;;30.27;6.97;;;8.10;99.90;;;;;;5084812;28;38387;-76
2022/02/01 10:46:07;;;;;;;31.83;6.50;;;8.20;99.90;;;;;;5085863;28;36106;-75
2022/02/01 10:48:34;;;;;;;27.37;6.47;;;8.20;99.90;;;;;;5084008;28;47498;-76
2022/02/01 10:51:13;;;;;;;30.20;6.17;;;8.30;99.90;;;;;;5081614;28;37563;-76
2022/02/01 10:53:40;;;;;;;35.67;6.50;;;8.30;99.90;;;;;;5091285;28;47184;-76
2022/02/01 10:56:08;;;;;;;41.73;8.17;;;8.40;99.90;;;;;;5084597;27;37237;-77
2022/02/01 10:58:35;;;;;;;26.37;5.97;;;8.40;99.90;;;;;;5084757;28;38606;-76
2022/02/01 11:01:01;;;;;;;39.13;6.67;;;8.40;99.90;;;;;;5081973;28;37265;-76
2022/02/01 11:03:29;;;;;;;26.37;5.40;;;8.40;99.90;;;;;;5079986;28;47461;-76
2022/02/01 11:05:58;;;;;;;33.80;5.93;;;8.50;99.90;;;;;;5083207;27;36112;-76
2022/02/01 11:08:26;;;;;;;23.93;5.73;;;8.50;99.90;;;;;;5080935;27;40960;-76
2022/02/01 11:10:55;;;;;;;27.37;6.40;;;8.60;99.90;;;;;;5080441;28;38974;-76
2022/02/01 11:13:22;;;;;;;34.90;6.87;;;8.70;99.90;;;;;;5083276;27;38285;-75
2022/02/01 11:16:02;;;;;;;22.57;5.30;;;8.70;99.90;;;;;;5081640;28;37838;-76
2022/02/01 11:18:29;;;;;;;27.07;5.80;;;8.80;99.90;;;;;;5084322;27;47652;-76
2022/02/01 11:21:05;;;;;;;26.57;6.03;;;8.90;99.90;;;;;;5082842;28;41867;-75
2022/02/01 11:23:48;;;;;;;29.90;5.37;;;8.90;99.90;;;;;;5081282;27;48539;-76
2022/02/01 11:26:36;;;;;;;25.03;5.80;;;9.00;99.90;;;;;;5082397;27;37672;-76
2022/02/01 11:31:49;;;;;;;17.80;4.53;;;9.10;99.90;;;;;;5084661;27;48494;-76
2022/02/01 11:34:16;;;;;;;21.83;5.00;;;9.20;99.90;;;;;;5084785;27;37946;-76
2022/02/01 11:36:42;;;;;;;18.40;5.07;;;9.30;99.90;;;;;;5083175;28;39004;-75
2022/02/01 11:39:13;;;;;;;17.60;4.43;;;9.30;99.90;;;;;;5081551;27;39400;-76
2022/02/01 11:41:41;;;;;;;27.20;4.83;;;9.40;99.90;;;;;;5080050;28;38869;-76
2022/02/01 11:44:18;;;;;;;19.03;4.57;;;9.50;99.90;;;;;;5079778;27;38999;-76
2022/02/01 11:47:02;;;;;;;21.60;3.93;;;9.50;99.90;;;;;;5077521;27;37158;-75
2022/02/01 11:49:28;;;;;;;24.93;4.70;;;9.50;99.90;;;;;;5077781;28;48702;-75
2022/02/01 11:52:15;;;;;;;21.73;4.63;;;9.60;99.90;;;;;;5081266;27;39099;-75
2022/02/01 11:54:45;;;;;;;14.43;4.10;;;9.70;99.90;;;;;;5095276;27;47163;-76
2022/02/01 11:57:13;;;;;;;21.27;3.63;;;9.70;99.90;;;;;;5081307;27;37951;-76
2022/02/01 11:59:50;;;;;;;19.33;3.40;;;9.80;99.90;;;;;;5082215;27;39834;-76
2022/02/01 12:02:26;;;;;;;21.37;4.60;;;9.80;99.90;;;;;;5081014;28;38782;-77
2022/02/01 12:04:52;;;;;;;23.33;4.00;;;9.80;99.90;;;;;;5082899;28;36822;-76
2022/02/01 12:07:23;;;;;;;20.80;3.87;;;9.90;99.90;;;;;;5081286;28;37593;-74
2022/02/01 12:09:49;;;;;;;19.23;4.50;;;9.90;99.90;;;;;;5079983;28;39907;-74
2022/02/01 12:12:21;;;;;;;14.77;3.50;;;9.90;99.90;;;;;;5082530;27;38559;-77
2022/02/01 12:14:56;;;;;;;16.07;3.43;;;9.90;99.90;;;;;;5081290;28;38973;-74
2022/02/01 12:17:22;;;;;;;19.53;3.77;;;10.00;99.90;;;;;;5084067;27;37922;-76
2022/02/01 12:19:57;;;;;;;13.37;3.50;;;10.10;99.90;;;;;;5086235;27;39703;-74
2022/02/01 12:22:36;;;;;;;17.60;3.23;;;10.10;99.90;;;;;;5080901;28;38727;-76
2022/02/01 12:25:08;;;;;;;17.57;3.97;;;10.10;99.90;;;;;;5082577;27;37045;-75
2022/02/01 12:27:40;;;;;;;15.20;3.40;;;10.10;99.90;;;;;;5071558;28;47427;-75
2022/02/01 12:30:09;;;;;;;16.07;3.33;;;10.10;99.90;;;;;;5079114;28;39654;-75
2022/02/01 12:32:35;;;;;;;14.93;2.90;;;10.10;99.90;;;;;;5083351;27;39350;-76
2022/02/01 12:35:03;;;;;;;10.43;3.27;;;10.10;99.90;;;;;;5083044;28;38212;-77
2022/02/01 12:37:31;;;;;;;15.00;3.70;;;10.00;99.90;;;;;;5079208;28;38820;-75
2022/02/01 12:40:03;;;;;;;13.97;3.60;;;10.00;99.90;;;;;;5081986;28;39690;-76
2022/02/01 12:42:38;;;;;;;16.43;3.33;;;10.10;99.90;;;;;;5095218;27;47138;-76
2022/02/01 12:47:58;;;;;;;18.60;3.33;;;10.20;99.90;;;;;;5076751;27;38479;-73
2022/02/01 12:50:24;;;;;;;18.47;3.33;;;10.20;99.90;;;;;;5085418;28;39234;-74
2022/02/01 12:52:56;;;;;;;21.17;3.57;;;10.20;99.90;;;;;;5085069;28;39943;-74
2022/02/01 12:55:24;;;;;;;15.75;3.92;;;10.10;99.90;;;;;;5084633;27;38066;-74
2022/02/01 12:57:50;;;;;;;15.10;3.17;;;10.30;99.90;;;;;;5082658;28;37854;-74
2022/02/01 13:00:18;;;;;;;19.57;3.53;;;10.30;99.90;;;;;;5085598;27;40511;-74
2022/02/01 13:02:45;;;;;;;15.53;3.00;;;10.40;99.90;;;;;;5080605;28;38386;-75
2022/02/01 13:05:15;;;;;;;15.70;2.90;;;10.70;99.90;;;;;;5098676;27;40331;-74
2022/02/01 13:21:24;;;;;;;14.53;3.07;;;10.80;99.90;;;;;;5084791;27;39703;-73
2022/02/01 13:23:55;;;;;;;13.50;2.93;;;11.00;99.90;;;;;;5083829;28;40094;-74
2022/02/01 13:26:29;;;;;;;11.52;2.45;;;11.20;99.90;;;;;;5082608;27;37941;-74
2022/02/01 13:29:07;;;;;;;8.75;2.40;;;11.20;99.90;;;;;;5082658;28;38254;-73
2022/02/01 13:31:38;;;;;;;10.60;2.75;;;11.30;99.90;;;;;;5082816;28;47131;-74
2022/02/01 13:34:09;;;;;;;9.85;2.53;;;11.20;99.90;;;;;;5082751;27;38414;-73
2022/02/01 13:36:48;;;;;;;7.47;2.35;;;11.30;99.90;;;;;;5081353;27;38193;-74
2022/02/01 13:39:30;;;;;;;11.30;2.63;;;11.20;99.90;;;;;;5081499;28;39324;-74
2022/02/01 13:42:00;;;;;;;10.80;3.22;;;11.30;99.90;;;;;;5085099;27;39673;-75
2022/02/01 13:44:29;;;;;;;11.75;2.45;;;11.30;99.90;;;;;;5080417;28;41176;-75
2022/02/01 13:47:13;;;;;;;7.10;1.98;;;11.30;99.90;;;;;;5080769;27;38875;-75
2022/02/01 13:49:39;;;;;;;8.85;1.95;;;11.30;99.90;;;;;;5082786;28;47258;-76
2022/02/01 13:52:06;;;;;;;7.00;2.05;;;11.20;99.90;;;;;;5078910;28;39890;-76
2022/02/01 13:54:37;;;;;;;12.88;2.58;;;11.20;99.90;;;;;;5080626;28;38899;-75
2022/02/01 13:57:16;;;;;;;11.30;2.85;;;11.30;99.90;;;;;;5080471;27;37680;-75
2022/02/01 13:59:43;;;;;;;14.65;2.90;;;11.30;99.90;;;;;;5081573;28;37776;-76
2022/02/01 14:02:16;;;;;;;13.63;3.08;;;11.30;99.90;;;;;;5079638;28;38894;-74
2022/02/01 14:05:17;;;;;;;10.63;3.08;;;11.20;99.90;;;;;;5083098;28;38879;-75
2022/02/01 14:08:21;;;;;;;11.93;2.30;;;11.20;99.90;;;;;;5075267;28;47551;-75
2022/02/01 14:11:27;;;;;;;10.02;2.10;;;11.10;99.90;;;;;;5079362;27;48896;-77
2022/02/01 14:14:32;;;;;;;11.20;2.10;;;11.20;99.90;;;;;;5083944;27;48299;-74
2022/02/01 14:35:41;;;;;;;15.05;2.65;;;11.00;99.90;;;;;;5073870;27;49047;-74
2022/02/01 14:38:37;;;;;;;12.10;2.30;;;10.90;99.90;;;;;;5079799;27;37098;-73
2022/02/01 14:44:04;;;;;;;16.23;3.50;;;10.80;99.90;;;;;;5073751;27;49187;-73
2022/02/01 14:46:30;;;;;;;19.47;4.00;;;10.80;99.90;;;;;;5074414;28;47550;-74
2022/02/01 14:48:57;;;;;;;12.97;2.63;;;10.80;99.90;;;;;;5081785;27;39250;-74
2022/02/01 14:51:23;;;;;;;13.23;2.57;;;10.70;99.90;;;;;;5078664;28;37080;-74
2022/02/01 14:53:50;;;;;;;12.70;2.60;;;10.70;99.90;;;;;;5078543;27;37085;-74
2022/02/01 14:56:31;;;;;;;12.33;2.20;;;10.70;99.90;;;;;;5078724;28;39541;-74
2022/02/01 15:05:09;;;;;;;14.20;2.60;;;10.70;99.90;;;;;;5074789;28;48120;-75
2022/02/01 15:07:23;;;;;;;15.70;2.70;;;10.80;99.90;;;;;;5076990;28;39689;-74
2022/02/01 15:12:46;;;;;;;18.17;3.07;;;10.80;99.90;;;;;;5073792;27;49274;-74